sensor_id;sensor_type;location;lat;lon;timestamp;P1;durP1;ratioP1;P2;durP2;ratioP2
47483;SDS011;54076;50.322;18.650;2023-06-26T00:02:21;9.80;;;3.90;;
47483;SDS011;54076;50.322;18.650;2023-06-26T00:07:22;9.40;;;4.60;;
47483;SDS011;54076;50.322;18.650;2023-06-26T00:12:23;8.60;;;4.30;;
47483;SDS011;54076;50.322;18.650;2023-06-26T00:17:24;9.30;;;3.90;;
47483;SDS011;54076;50.322;18.650;2023-06-26T00:22:24;7.40;;;4.10;;
47483;SDS011;54076;50.322;18.650;2023-06-26T00:27:26;8.30;;;4.00;;
47483;SDS011;54076;50.322;18.650;2023-06-26T00:32:26;8.00;;;4.00;;
47483;SDS011;54076;50.322;18.650;2023-06-26T00:37:27;9.00;;;4.30;;
47483;SDS011;54076;50.322;18.650;2023-06-26T00:42:28;9.50;;;4.10;;
47483;SDS011;54076;50.322;18.650;2023-06-26T00:47:29;10.50;;;4.60;;
47483;SDS011;54076;50.322;18.650;2023-06-26T00:52:31;8.50;;;4.50;;
47483;SDS011;54076;50.322;18.650;2023-06-26T00:57:32;8.20;;;4.50;;
47483;SDS011;54076;50.322;18.650;2023-06-26T01:02:33;8.50;;;4.00;;
47483;SDS011;54076;50.322;18.650;2023-06-26T01:07:35;8.30;;;4.30;;
47483;SDS011;54076;50.322;18.650;2023-06-26T01:12:38;9.20;;;4.30;;
47483;SDS011;54076;50.322;18.650;2023-06-26T01:17:39;9.20;;;3.90;;
47483;SDS011;54076;50.322;18.650;2023-06-26T01:28:22;9.80;;;4.60;;
47483;SDS011;54076;50.322;18.650;2023-06-26T01:33:25;9.40;;;4.20;;
47483;SDS011;54076;50.322;18.650;2023-06-26T01:38:26;9.50;;;4.30;;
47483;SDS011;54076;50.322;18.650;2023-06-26T01:49:23;8.20;;;4.30;;
47483;SDS011;54076;50.322;18.650;2023-06-26T01:54:31;8.60;;;4.50;;
47483;SDS011;54076;50.322;18.650;2023-06-26T01:59:35;9.40;;;4.30;;
47483;SDS011;54076;50.322;18.650;2023-06-26T02:04:40;9.40;;;4.50;;
47483;SDS011;54076;50.322;18.650;2023-06-26T02:09:41;8.10;;;4.30;;
47483;SDS011;54076;50.322;18.650;2023-06-26T02:14:42;10.30;;;4.30;;
47483;SDS011;54076;50.322;18.650;2023-06-26T02:19:43;7.80;;;4.20;;
47483;SDS011;54076;50.322;18.650;2023-06-26T02:24:47;10.10;;;4.50;;
47483;SDS011;54076;50.322;18.650;2023-06-26T02:29:48;9.80;;;4.10;;
47483;SDS011;54076;50.322;18.650;2023-06-26T02:34:49;8.00;;;3.90;;
47483;SDS011;54076;50.322;18.650;2023-06-26T02:39:52;9.50;;;4.30;;
47483;SDS011;54076;50.322;18.650;2023-06-26T02:44:53;9.80;;;4.40;;
47483;SDS011;54076;50.322;18.650;2023-06-26T02:49:54;11.10;;;4.70;;
47483;SDS011;54076;50.322;18.650;2023-06-26T02:54:55;10.30;;;4.10;;
47483;SDS011;54076;50.322;18.650;2023-06-26T02:59:55;9.00;;;4.00;;
47483;SDS011;54076;50.322;18.650;2023-06-26T03:04:56;8.30;;;4.40;;
47483;SDS011;54076;50.322;18.650;2023-06-26T03:09:58;8.60;;;4.50;;
47483;SDS011;54076;50.322;18.650;2023-06-26T03:15:00;8.50;;;4.50;;
47483;SDS011;54076;50.322;18.650;2023-06-26T03:20:00;11.30;;;4.50;;
47483;SDS011;54076;50.322;18.650;2023-06-26T03:25:02;9.00;;;4.40;;
47483;SDS011;54076;50.322;18.650;2023-06-26T03:30:04;11.50;;;4.50;;
47483;SDS011;54076;50.322;18.650;2023-06-26T03:35:06;9.50;;;4.30;;
47483;SDS011;54076;50.322;18.650;2023-06-26T03:40:07;10.40;;;4.90;;
47483;SDS011;54076;50.322;18.650;2023-06-26T03:45:09;10.00;;;4.10;;
47483;SDS011;54076;50.322;18.650;2023-06-26T03:50:10;11.30;;;4.50;;
47483;SDS011;54076;50.322;18.650;2023-06-26T03:55:11;9.30;;;4.60;;
47483;SDS011;54076;50.322;18.650;2023-06-26T04:00:13;11.30;;;5.00;;
47483;SDS011;54076;50.322;18.650;2023-06-26T04:05:15;9.80;;;4.50;;
47483;SDS011;54076;50.322;18.650;2023-06-26T04:10:18;14.10;;;5.60;;
47483;SDS011;54076;50.322;18.650;2023-06-26T04:15:21;13.20;;;5.70;;
47483;SDS011;54076;50.322;18.650;2023-06-26T04:20:22;13.50;;;6.30;;
47483;SDS011;54076;50.322;18.650;2023-06-26T04:25:22;11.10;;;5.30;;
47483;SDS011;54076;50.322;18.650;2023-06-26T04:30:23;11.90;;;5.40;;
47483;SDS011;54076;50.322;18.650;2023-06-26T04:35:24;11.90;;;5.60;;
47483;SDS011;54076;50.322;18.650;2023-06-26T04:40:25;12.60;;;5.90;;
47483;SDS011;54076;50.322;18.650;2023-06-26T04:45:26;12.60;;;5.90;;
47483;SDS011;54076;50.322;18.650;2023-06-26T04:50:27;16.00;;;6.30;;
47483;SDS011;54076;50.322;18.650;2023-06-26T04:55:29;24.60;;;7.00;;
47483;SDS011;54076;50.322;18.650;2023-06-26T05:00:31;16.70;;;6.60;;
47483;SDS011;54076;50.322;18.650;2023-06-26T05:05:33;18.20;;;7.00;;
47483;SDS011;54076;50.322;18.650;2023-06-26T05:10:33;13.50;;;6.60;;
47483;SDS011;54076;50.322;18.650;2023-06-26T05:15:34;15.30;;;7.00;;
47483;SDS011;54076;50.322;18.650;2023-06-26T05:20:36;13.90;;;6.50;;
47483;SDS011;54076;50.322;18.650;2023-06-26T05:25:37;13.30;;;6.40;;
47483;SDS011;54076;50.322;18.650;2023-06-26T05:30:38;14.50;;;6.40;;
47483;SDS011;54076;50.322;18.650;2023-06-26T05:35:40;12.70;;;6.00;;
47483;SDS011;54076;50.322;18.650;2023-06-26T05:40:41;14.60;;;6.40;;
47483;SDS011;54076;50.322;18.650;2023-06-26T05:45:43;12.60;;;5.80;;
47483;SDS011;54076;50.322;18.650;2023-06-26T05:50:44;12.40;;;5.80;;
47483;SDS011;54076;50.322;18.650;2023-06-26T05:55:46;17.30;;;6.20;;
47483;SDS011;54076;50.322;18.650;2023-06-26T06:00:47;12.40;;;6.40;;
47483;SDS011;54076;50.322;18.650;2023-06-26T06:05:48;15.00;;;6.40;;
47483;SDS011;54076;50.322;18.650;2023-06-26T06:10:49;13.20;;;6.70;;
47483;SDS011;54076;50.322;18.650;2023-06-26T06:15:50;13.10;;;6.20;;
47483;SDS011;54076;50.322;18.650;2023-06-26T06:20:50;12.00;;;6.00;;
47483;SDS011;54076;50.322;18.650;2023-06-26T06:25:51;13.30;;;5.80;;
47483;SDS011;54076;50.322;18.650;2023-06-26T06:30:52;13.00;;;6.30;;
47483;SDS011;54076;50.322;18.650;2023-06-26T06:35:53;13.70;;;5.30;;
47483;SDS011;54076;50.322;18.650;2023-06-26T06:40:54;12.60;;;5.70;;
47483;SDS011;54076;50.322;18.650;2023-06-26T06:45:55;11.40;;;5.30;;
47483;SDS011;54076;50.322;18.650;2023-06-26T06:50:56;10.70;;;5.50;;
47483;SDS011;54076;50.322;18.650;2023-06-26T06:55:57;10.60;;;5.50;;
47483;SDS011;54076;50.322;18.650;2023-06-26T07:00:58;12.90;;;5.70;;
47483;SDS011;54076;50.322;18.650;2023-06-26T07:05:58;12.50;;;5.50;;
47483;SDS011;54076;50.322;18.650;2023-06-26T07:10:59;10.90;;;5.40;;
47483;SDS011;54076;50.322;18.650;2023-06-26T07:16:00;9.60;;;4.80;;
47483;SDS011;54076;50.322;18.650;2023-06-26T07:21:01;12.40;;;5.70;;
47483;SDS011;54076;50.322;18.650;2023-06-26T07:26:02;12.00;;;5.00;;
47483;SDS011;54076;50.322;18.650;2023-06-26T07:31:03;9.90;;;4.80;;
47483;SDS011;54076;50.322;18.650;2023-06-26T07:36:04;9.80;;;4.60;;
47483;SDS011;54076;50.322;18.650;2023-06-26T07:41:05;9.00;;;4.40;;
47483;SDS011;54076;50.322;18.650;2023-06-26T07:46:06;12.50;;;6.40;;
47483;SDS011;54076;50.322;18.650;2023-06-26T07:51:07;9.80;;;5.00;;
47483;SDS011;54076;50.322;18.650;2023-06-26T07:56:08;10.10;;;5.20;;
47483;SDS011;54076;50.322;18.650;2023-06-26T08:01:09;9.30;;;4.90;;
47483;SDS011;54076;50.322;18.650;2023-06-26T08:06:10;9.20;;;4.70;;
47483;SDS011;54076;50.322;18.650;2023-06-26T08:11:10;12.60;;;5.20;;
47483;SDS011;54076;50.322;18.650;2023-06-26T08:16:11;10.30;;;5.40;;
47483;SDS011;54076;50.322;18.650;2023-06-26T08:21:12;9.50;;;4.70;;
47483;SDS011;54076;50.322;18.650;2023-06-26T08:26:14;9.10;;;4.60;;
47483;SDS011;54076;50.322;18.650;2023-06-26T08:31:16;9.10;;;4.60;;
47483;SDS011;54076;50.322;18.650;2023-06-26T08:36:17;9.60;;;4.50;;
47483;SDS011;54076;50.322;18.650;2023-06-26T08:41:18;8.20;;;4.80;;
47483;SDS011;54076;50.322;18.650;2023-06-26T08:46:19;7.70;;;4.10;;
47483;SDS011;54076;50.322;18.650;2023-06-26T08:51:20;9.50;;;5.10;;
47483;SDS011;54076;50.322;18.650;2023-06-26T08:56:32;9.90;;;4.10;;
47483;SDS011;54076;50.322;18.650;2023-06-26T09:01:36;7.90;;;4.20;;
47483;SDS011;54076;50.322;18.650;2023-06-26T09:06:38;8.00;;;3.80;;
47483;SDS011;54076;50.322;18.650;2023-06-26T09:11:40;8.10;;;3.50;;
47483;SDS011;54076;50.322;18.650;2023-06-26T09:16:41;7.70;;;3.70;;
47483;SDS011;54076;50.322;18.650;2023-06-26T09:21:43;6.10;;;3.00;;
47483;SDS011;54076;50.322;18.650;2023-06-26T09:26:44;6.10;;;2.90;;
47483;SDS011;54076;50.322;18.650;2023-06-26T09:31:45;6.30;;;3.10;;
47483;SDS011;54076;50.322;18.650;2023-06-26T09:36:46;6.30;;;3.00;;
47483;SDS011;54076;50.322;18.650;2023-06-26T09:41:48;5.20;;;2.80;;
47483;SDS011;54076;50.322;18.650;2023-06-26T09:46:50;5.70;;;3.10;;
47483;SDS011;54076;50.322;18.650;2023-06-26T09:51:51;5.50;;;3.20;;
47483;SDS011;54076;50.322;18.650;2023-06-26T09:56:52;6.80;;;3.60;;
47483;SDS011;54076;50.322;18.650;2023-06-26T10:01:59;8.60;;;3.80;;
47483;SDS011;54076;50.322;18.650;2023-06-26T10:07:11;7.40;;;3.30;;
47483;SDS011;54076;50.322;18.650;2023-06-26T10:12:31;6.30;;;3.20;;
47483;SDS011;54076;50.322;18.650;2023-06-26T10:17:34;6.30;;;3.40;;
47483;SDS011;54076;50.322;18.650;2023-06-26T10:22:44;6.80;;;3.40;;
47483;SDS011;54076;50.322;18.650;2023-06-26T10:27:57;6.00;;;2.90;;
47483;SDS011;54076;50.322;18.650;2023-06-26T10:33:00;6.40;;;3.50;;
47483;SDS011;54076;50.322;18.650;2023-06-26T10:38:03;6.00;;;3.10;;
47483;SDS011;54076;50.322;18.650;2023-06-26T10:43:08;6.30;;;3.10;;
47483;SDS011;54076;50.322;18.650;2023-06-26T10:48:15;7.40;;;3.30;;
47483;SDS011;54076;50.322;18.650;2023-06-26T11:03:42;5.60;;;3.00;;
47483;SDS011;54076;50.322;18.650;2023-06-26T11:08:49;5.50;;;3.00;;
47483;SDS011;54076;50.322;18.650;2023-06-26T11:13:52;6.30;;;3.30;;
47483;SDS011;54076;50.322;18.650;2023-06-26T11:18:53;6.80;;;3.20;;
47483;SDS011;54076;50.322;18.650;2023-06-26T11:23:59;7.40;;;3.40;;
47483;SDS011;54076;50.322;18.650;2023-06-26T11:29:02;6.10;;;3.50;;
47483;SDS011;54076;50.322;18.650;2023-06-26T11:34:07;6.70;;;3.30;;
47483;SDS011;54076;50.322;18.650;2023-06-26T11:39:12;7.10;;;3.60;;
47483;SDS011;54076;50.322;18.650;2023-06-26T11:44:13;7.50;;;3.70;;
47483;SDS011;54076;50.322;18.650;2023-06-26T11:49:21;5.80;;;3.30;;
47483;SDS011;54076;50.322;18.650;2023-06-26T11:54:25;6.60;;;3.70;;
47483;SDS011;54076;50.322;18.650;2023-06-26T11:59:38;8.40;;;3.50;;
47483;SDS011;54076;50.322;18.650;2023-06-26T12:04:42;6.90;;;3.30;;
47483;SDS011;54076;50.322;18.650;2023-06-26T12:09:45;6.50;;;3.10;;
47483;SDS011;54076;50.322;18.650;2023-06-26T12:14:47;6.00;;;3.40;;
47483;SDS011;54076;50.322;18.650;2023-06-26T12:19:48;6.10;;;3.40;;
47483;SDS011;54076;50.322;18.650;2023-06-26T12:24:50;6.80;;;3.30;;
47483;SDS011;54076;50.322;18.650;2023-06-26T12:29:52;7.20;;;3.20;;
47483;SDS011;54076;50.322;18.650;2023-06-26T12:34:56;6.50;;;3.00;;
47483;SDS011;54076;50.322;18.650;2023-06-26T12:39:58;5.50;;;3.00;;
47483;SDS011;54076;50.322;18.650;2023-06-26T12:44:59;6.30;;;3.20;;
47483;SDS011;54076;50.322;18.650;2023-06-26T12:50:12;7.10;;;3.40;;
47483;SDS011;54076;50.322;18.650;2023-06-26T12:55:13;6.00;;;3.20;;
47483;SDS011;54076;50.322;18.650;2023-06-26T13:00:14;6.20;;;3.20;;
47483;SDS011;54076;50.322;18.650;2023-06-26T13:05:15;5.70;;;3.20;;
47483;SDS011;54076;50.322;18.650;2023-06-26T13:10:16;5.50;;;3.20;;
47483;SDS011;54076;50.322;18.650;2023-06-26T13:15:17;6.20;;;3.10;;
47483;SDS011;54076;50.322;18.650;2023-06-26T13:20:18;5.60;;;3.00;;
47483;SDS011;54076;50.322;18.650;2023-06-26T13:25:20;8.20;;;3.30;;
47483;SDS011;54076;50.322;18.650;2023-06-26T13:30:21;5.20;;;2.90;;
47483;SDS011;54076;50.322;18.650;2023-06-26T13:35:22;7.10;;;3.40;;
47483;SDS011;54076;50.322;18.650;2023-06-26T13:40:24;7.00;;;3.40;;
47483;SDS011;54076;50.322;18.650;2023-06-26T13:45:25;6.00;;;3.30;;
47483;SDS011;54076;50.322;18.650;2023-06-26T13:50:26;5.60;;;3.20;;
47483;SDS011;54076;50.322;18.650;2023-06-26T13:55:27;5.60;;;3.30;;
47483;SDS011;54076;50.322;18.650;2023-06-26T14:00:28;6.10;;;3.40;;
47483;SDS011;54076;50.322;18.650;2023-06-26T14:05:30;6.60;;;3.50;;
47483;SDS011;54076;50.322;18.650;2023-06-26T14:10:31;6.60;;;3.60;;
47483;SDS011;54076;50.322;18.650;2023-06-26T14:15:33;6.00;;;3.30;;
47483;SDS011;54076;50.322;18.650;2023-06-26T14:20:36;7.10;;;3.70;;
47483;SDS011;54076;50.322;18.650;2023-06-26T14:25:36;5.70;;;3.30;;
47483;SDS011;54076;50.322;18.650;2023-06-26T14:30:37;9.10;;;3.70;;
47483;SDS011;54076;50.322;18.650;2023-06-26T14:35:38;9.00;;;3.50;;
47483;SDS011;54076;50.322;18.650;2023-06-26T14:40:39;6.10;;;3.60;;
47483;SDS011;54076;50.322;18.650;2023-06-26T14:45:41;6.10;;;3.40;;
47483;SDS011;54076;50.322;18.650;2023-06-26T14:50:42;7.70;;;3.70;;
47483;SDS011;54076;50.322;18.650;2023-06-26T14:55:43;5.90;;;3.30;;
47483;SDS011;54076;50.322;18.650;2023-06-26T15:00:44;7.20;;;3.50;;
47483;SDS011;54076;50.322;18.650;2023-06-26T15:05:45;8.10;;;3.60;;
47483;SDS011;54076;50.322;18.650;2023-06-26T15:10:46;6.10;;;3.80;;
47483;SDS011;54076;50.322;18.650;2023-06-26T15:15:46;6.20;;;3.50;;
47483;SDS011;54076;50.322;18.650;2023-06-26T15:20:47;7.90;;;3.40;;
47483;SDS011;54076;50.322;18.650;2023-06-26T15:25:48;5.60;;;3.20;;
47483;SDS011;54076;50.322;18.650;2023-06-26T15:30:49;6.00;;;3.40;;
47483;SDS011;54076;50.322;18.650;2023-06-26T15:35:50;5.50;;;3.00;;
47483;SDS011;54076;50.322;18.650;2023-06-26T15:40:51;5.80;;;2.90;;
47483;SDS011;54076;50.322;18.650;2023-06-26T15:45:52;6.20;;;3.50;;
47483;SDS011;54076;50.322;18.650;2023-06-26T15:50:53;6.20;;;2.90;;
47483;SDS011;54076;50.322;18.650;2023-06-26T15:55:54;5.80;;;3.10;;
47483;SDS011;54076;50.322;18.650;2023-06-26T16:00:55;5.30;;;3.10;;
47483;SDS011;54076;50.322;18.650;2023-06-26T16:05:56;7.00;;;3.00;;
47483;SDS011;54076;50.322;18.650;2023-06-26T16:10:57;5.50;;;3.30;;
47483;SDS011;54076;50.322;18.650;2023-06-26T16:15:58;6.20;;;3.50;;
47483;SDS011;54076;50.322;18.650;2023-06-26T16:20:59;6.30;;;3.40;;
47483;SDS011;54076;50.322;18.650;2023-06-26T16:26:00;5.60;;;2.70;;
47483;SDS011;54076;50.322;18.650;2023-06-26T16:31:01;5.20;;;2.60;;
47483;SDS011;54076;50.322;18.650;2023-06-26T16:36:02;5.20;;;2.60;;
47483;SDS011;54076;50.322;18.650;2023-06-26T16:41:04;7.10;;;2.50;;
47483;SDS011;54076;50.322;18.650;2023-06-26T16:46:05;7.00;;;2.70;;
47483;SDS011;54076;50.322;18.650;2023-06-26T16:51:06;5.50;;;2.60;;
47483;SDS011;54076;50.322;18.650;2023-06-26T16:56:06;4.60;;;2.30;;
47483;SDS011;54076;50.322;18.650;2023-06-26T17:01:07;4.30;;;2.30;;
47483;SDS011;54076;50.322;18.650;2023-06-26T17:06:08;4.20;;;2.30;;
47483;SDS011;54076;50.322;18.650;2023-06-26T17:11:10;5.30;;;2.50;;
47483;SDS011;54076;50.322;18.650;2023-06-26T17:16:11;4.70;;;2.70;;
47483;SDS011;54076;50.322;18.650;2023-06-26T17:21:12;5.60;;;2.60;;
47483;SDS011;54076;50.322;18.650;2023-06-26T17:26:13;5.30;;;2.50;;
47483;SDS011;54076;50.322;18.650;2023-06-26T17:31:14;4.80;;;2.40;;
47483;SDS011;54076;50.322;18.650;2023-06-26T17:36:15;7.30;;;3.40;;
47483;SDS011;54076;50.322;18.650;2023-06-26T17:41:16;5.10;;;2.80;;
47483;SDS011;54076;50.322;18.650;2023-06-26T17:46:16;5.00;;;2.70;;
47483;SDS011;54076;50.322;18.650;2023-06-26T17:51:17;5.30;;;2.90;;
47483;SDS011;54076;50.322;18.650;2023-06-26T17:56:18;6.10;;;2.90;;
47483;SDS011;54076;50.322;18.650;2023-06-26T18:01:19;5.50;;;2.90;;
47483;SDS011;54076;50.322;18.650;2023-06-26T18:06:20;7.60;;;3.00;;
47483;SDS011;54076;50.322;18.650;2023-06-26T18:11:21;6.20;;;3.00;;
47483;SDS011;54076;50.322;18.650;2023-06-26T18:16:22;5.20;;;2.80;;
47483;SDS011;54076;50.322;18.650;2023-06-26T18:21:26;6.00;;;3.50;;
47483;SDS011;54076;50.322;18.650;2023-06-26T18:26:28;5.70;;;3.00;;
47483;SDS011;54076;50.322;18.650;2023-06-26T18:31:29;9.10;;;2.90;;
47483;SDS011;54076;50.322;18.650;2023-06-26T18:36:29;6.90;;;3.30;;
47483;SDS011;54076;50.322;18.650;2023-06-26T18:41:31;9.70;;;3.40;;
47483;SDS011;54076;50.322;18.650;2023-06-26T18:46:32;6.80;;;3.10;;
47483;SDS011;54076;50.322;18.650;2023-06-26T18:51:34;6.70;;;3.00;;
47483;SDS011;54076;50.322;18.650;2023-06-26T18:56:35;6.60;;;3.10;;
47483;SDS011;54076;50.322;18.650;2023-06-26T19:01:36;8.20;;;3.40;;
47483;SDS011;54076;50.322;18.650;2023-06-26T19:06:37;6.80;;;3.40;;
47483;SDS011;54076;50.322;18.650;2023-06-26T19:11:38;7.00;;;3.00;;
47483;SDS011;54076;50.322;18.650;2023-06-26T19:16:39;7.80;;;3.40;;
47483;SDS011;54076;50.322;18.650;2023-06-26T19:21:40;7.80;;;3.80;;
47483;SDS011;54076;50.322;18.650;2023-06-26T19:26:41;6.90;;;3.80;;
47483;SDS011;54076;50.322;18.650;2023-06-26T19:31:42;7.30;;;3.70;;
47483;SDS011;54076;50.322;18.650;2023-06-26T19:36:43;9.00;;;3.50;;
47483;SDS011;54076;50.322;18.650;2023-06-26T19:41:44;10.00;;;3.40;;
47483;SDS011;54076;50.322;18.650;2023-06-26T19:46:45;7.00;;;3.60;;
47483;SDS011;54076;50.322;18.650;2023-06-26T19:51:47;9.10;;;4.20;;
47483;SDS011;54076;50.322;18.650;2023-06-26T19:56:48;9.40;;;4.00;;
47483;SDS011;54076;50.322;18.650;2023-06-26T20:01:49;12.20;;;4.30;;
47483;SDS011;54076;50.322;18.650;2023-06-26T20:06:50;9.90;;;4.10;;
47483;SDS011;54076;50.322;18.650;2023-06-26T20:11:52;7.30;;;3.90;;
47483;SDS011;54076;50.322;18.650;2023-06-26T20:16:53;7.80;;;3.70;;
47483;SDS011;54076;50.322;18.650;2023-06-26T20:21:54;10.50;;;4.50;;
47483;SDS011;54076;50.322;18.650;2023-06-26T20:26:55;8.30;;;3.70;;
47483;SDS011;54076;50.322;18.650;2023-06-26T20:31:56;7.70;;;4.00;;
47483;SDS011;54076;50.322;18.650;2023-06-26T20:36:57;8.60;;;4.20;;
47483;SDS011;54076;50.322;18.650;2023-06-26T20:41:58;9.00;;;4.50;;
47483;SDS011;54076;50.322;18.650;2023-06-26T20:47:00;8.20;;;4.00;;
47483;SDS011;54076;50.322;18.650;2023-06-26T20:52:12;10.50;;;4.60;;
47483;SDS011;54076;50.322;18.650;2023-06-26T20:57:16;9.50;;;4.70;;
47483;SDS011;54076;50.322;18.650;2023-06-26T21:02:18;13.10;;;4.80;;
47483;SDS011;54076;50.322;18.650;2023-06-26T21:07:19;10.40;;;5.20;;
47483;SDS011;54076;50.322;18.650;2023-06-26T21:12:19;8.70;;;4.60;;
47483;SDS011;54076;50.322;18.650;2023-06-26T21:17:20;9.80;;;4.90;;
47483;SDS011;54076;50.322;18.650;2023-06-26T21:22:21;9.10;;;4.80;;
47483;SDS011;54076;50.322;18.650;2023-06-26T21:27:22;13.60;;;5.10;;
47483;SDS011;54076;50.322;18.650;2023-06-26T21:32:23;12.10;;;5.00;;
47483;SDS011;54076;50.322;18.650;2023-06-26T21:37:24;11.40;;;5.00;;
47483;SDS011;54076;50.322;18.650;2023-06-26T21:42:25;12.70;;;5.40;;
47483;SDS011;54076;50.322;18.650;2023-06-26T21:47:26;11.80;;;4.70;;
47483;SDS011;54076;50.322;18.650;2023-06-26T21:52:27;12.80;;;5.10;;
47483;SDS011;54076;50.322;18.650;2023-06-26T21:57:28;9.60;;;4.70;;
47483;SDS011;54076;50.322;18.650;2023-06-26T22:02:29;13.20;;;5.30;;
47483;SDS011;54076;50.322;18.650;2023-06-26T22:07:30;11.00;;;5.40;;
47483;SDS011;54076;50.322;18.650;2023-06-26T22:12:31;13.40;;;5.40;;
47483;SDS011;54076;50.322;18.650;2023-06-26T22:17:32;9.80;;;5.30;;
47483;SDS011;54076;50.322;18.650;2023-06-26T22:22:50;11.30;;;5.70;;
47483;SDS011;54076;50.322;18.650;2023-06-26T22:27:53;12.50;;;5.20;;
47483;SDS011;54076;50.322;18.650;2023-06-26T22:32:54;10.50;;;4.20;;
47483;SDS011;54076;50.322;18.650;2023-06-26T22:37:55;7.70;;;3.90;;
47483;SDS011;54076;50.322;18.650;2023-06-26T22:42:56;7.20;;;3.30;;
47483;SDS011;54076;50.322;18.650;2023-06-26T22:47:57;6.90;;;2.90;;
47483;SDS011;54076;50.322;18.650;2023-06-26T22:52:58;6.60;;;2.90;;
47483;SDS011;54076;50.322;18.650;2023-06-26T22:58:00;6.00;;;2.80;;
47483;SDS011;54076;50.322;18.650;2023-06-26T23:03:01;6.90;;;3.20;;
47483;SDS011;54076;50.322;18.650;2023-06-26T23:08:02;7.30;;;3.20;;
47483;SDS011;54076;50.322;18.650;2023-06-26T23:13:04;7.40;;;2.90;;
47483;SDS011;54076;50.322;18.650;2023-06-26T23:18:05;5.50;;;2.90;;
47483;SDS011;54076;50.322;18.650;2023-06-26T23:23:05;7.50;;;2.90;;
47483;SDS011;54076;50.322;18.650;2023-06-26T23:28:06;7.30;;;3.20;;
47483;SDS011;54076;50.322;18.650;2023-06-26T23:33:07;6.90;;;3.10;;
47483;SDS011;54076;50.322;18.650;2023-06-26T23:38:08;8.40;;;3.70;;
47483;SDS011;54076;50.322;18.650;2023-06-26T23:43:09;7.70;;;3.60;;
47483;SDS011;54076;50.322;18.650;2023-06-26T23:48:12;9.00;;;3.40;;
47483;SDS011;54076;50.322;18.650;2023-06-26T23:53:13;7.50;;;3.70;;
47483;SDS011;54076;50.322;18.650;2023-06-26T23:58:14;8.50;;;3.60;;
